createdAt,value
2024-03-21T00:00:46.880Z,2.6
2024-03-21T00:05:47.435Z,3.3
2024-03-21T00:10:48.005Z,2.3
2024-03-21T00:12:57.476Z,2.2
2024-03-21T00:17:57.909Z,3.0
2024-03-21T00:22:58.511Z,2.1
2024-03-21T00:27:59.119Z,2.4
2024-03-21T00:32:59.732Z,2.6
2024-03-21T00:38:00.332Z,2.8
2024-03-21T00:43:00.994Z,5.0
2024-03-21T00:48:01.630Z,1.8
2024-03-21T00:53:02.194Z,3.0
2024-03-21T00:58:02.863Z,4.6
2024-03-21T01:03:03.541Z,4.8
2024-03-21T01:08:04.253Z,1.9
2024-03-21T01:13:04.765Z,4.2
2024-03-21T01:18:05.648Z,2.2
2024-03-21T01:23:06.129Z,2.1
2024-03-21T01:28:06.830Z,3.5
2024-03-21T01:33:07.393Z,2.2
2024-03-21T01:38:08.189Z,3.0
2024-03-21T01:43:08.813Z,3.3
2024-03-21T01:48:09.519Z,2.9
2024-03-21T01:53:10.094Z,3.1
2024-03-21T01:58:10.815Z,5.5
2024-03-21T02:03:11.530Z,3.1
2024-03-21T02:08:12.099Z,2.9
2024-03-21T02:13:12.761Z,1.5
2024-03-21T02:18:13.610Z,1.9
2024-03-21T02:23:14.177Z,3.1
2024-03-21T02:28:14.857Z,2.4
2024-03-21T02:33:15.542Z,4.9
2024-03-21T02:38:16.150Z,3.3
2024-03-21T02:43:16.788Z,1.5
2024-03-21T02:48:17.575Z,1.2
2024-03-21T02:53:18.228Z,4.0
2024-03-21T02:58:18.889Z,3.0
2024-03-21T03:03:19.593Z,2.6
2024-03-21T03:08:20.149Z,4.7
2024-03-21T03:13:20.725Z,5.5
2024-03-21T03:18:21.860Z,6.7
2024-03-21T03:23:22.052Z,3.3
2024-03-21T03:28:22.724Z,5.7
2024-03-21T03:33:23.430Z,3.1
2024-03-21T03:38:24.039Z,2.4
2024-03-21T03:43:24.683Z,3.4
2024-03-21T03:48:25.431Z,1.9
2024-03-21T03:53:26.055Z,3.6
2024-03-21T03:58:26.717Z,2.6
2024-03-21T04:03:30.260Z,2.7
2024-03-21T04:08:27.954Z,4.0
2024-03-21T04:13:30.257Z,2.7
2024-03-21T04:18:29.339Z,2.4
2024-03-21T04:23:30.230Z,5.6
2024-03-21T04:28:30.699Z,4.3
2024-03-21T04:33:31.369Z,3.9
2024-03-21T04:38:45.420Z,6.9
2024-03-21T04:43:32.642Z,5.8
2024-03-21T04:48:33.290Z,3.9
2024-03-21T04:53:33.970Z,8.0
2024-03-21T04:58:34.556Z,7.2
2024-03-21T05:03:35.180Z,2.8
2024-03-21T05:08:35.810Z,3.9
2024-03-21T05:13:36.421Z,2.6
2024-03-21T05:18:37.029Z,4.7
2024-03-21T05:23:37.703Z,3.3
2024-03-21T05:28:38.392Z,3.5
2024-03-21T05:33:38.918Z,4.9
2024-03-21T05:38:39.689Z,2.7
2024-03-21T05:43:40.157Z,1.7
2024-03-21T05:48:40.756Z,4.2
2024-03-21T05:53:41.421Z,1.0
2024-03-21T05:58:41.928Z,4.0
2024-03-21T06:03:42.522Z,4.1
2024-03-21T06:08:43.198Z,3.5
2024-03-21T06:13:43.760Z,3.1
2024-03-21T06:18:44.379Z,2.9
2024-03-21T06:23:45.264Z,3.0
2024-03-21T06:28:45.599Z,5.8
2024-03-21T06:33:46.220Z,3.1
2024-03-21T06:38:46.893Z,3.2
2024-03-21T06:43:47.492Z,4.2
2024-03-21T06:48:48.111Z,2.2
2024-03-21T06:53:50.024Z,3.2
2024-03-21T06:58:49.420Z,5.1
2024-03-21T07:03:50.096Z,3.6
2024-03-21T07:08:50.723Z,4.3
2024-03-21T07:13:51.295Z,9.2
2024-03-21T07:18:51.912Z,5.9
2024-03-21T07:23:52.720Z,2.3
2024-03-21T07:28:53.161Z,1.9
2024-03-21T07:33:53.926Z,15.1
2024-03-21T07:38:54.538Z,4.3
2024-03-21T07:43:55.031Z,5.1
2024-03-21T07:48:55.765Z,7.6
2024-03-21T07:53:56.332Z,8.6
2024-03-21T07:58:56.997Z,6.7
2024-03-21T08:03:57.640Z,7.3
2024-03-21T08:08:58.371Z,6.0
2024-03-21T08:13:58.986Z,7.9
2024-03-21T08:18:59.577Z,5.1
2024-03-21T08:24:00.267Z,5.6
2024-03-21T08:29:01.052Z,6.0
2024-03-21T08:34:01.549Z,4.2
2024-03-21T08:39:02.220Z,5.6
2024-03-21T08:44:02.869Z,4.9
2024-03-21T08:49:03.585Z,5.8
2024-03-21T08:54:04.219Z,5.8
2024-03-21T08:59:04.864Z,6.1
2024-03-21T09:04:05.605Z,6.7
2024-03-21T09:09:06.244Z,5.6
2024-03-21T09:14:06.888Z,9.9
2024-03-21T09:19:07.530Z,6.0
2024-03-21T09:24:08.241Z,6.4
2024-03-21T09:29:08.873Z,5.3
2024-03-21T09:34:09.570Z,6.9
2024-03-21T09:39:10.306Z,3.2
2024-03-21T09:44:10.844Z,4.3
2024-03-21T09:49:11.487Z,5.5
2024-03-21T09:54:12.117Z,6.4
2024-03-21T09:59:12.893Z,6.4
2024-03-21T10:04:13.514Z,6.0
2024-03-21T10:09:14.245Z,7.5
2024-03-21T10:14:14.880Z,5.2
2024-03-21T10:19:15.551Z,4.4
2024-03-21T10:24:16.299Z,5.4
2024-03-21T10:29:18.434Z,6.0
2024-03-21T10:34:17.527Z,7.9
2024-03-21T10:39:18.241Z,4.7
2024-03-21T10:44:18.813Z,6.4
2024-03-21T10:49:19.520Z,8.8
2024-03-21T10:54:20.174Z,9.9
2024-03-21T10:59:22.838Z,11.9
2024-03-21T11:04:21.614Z,6.5
2024-03-21T11:09:22.210Z,10.2
2024-03-21T11:14:22.862Z,5.5
2024-03-21T11:19:23.822Z,9.5
2024-03-21T11:24:24.577Z,8.1
2024-03-21T11:29:24.963Z,9.5
2024-03-21T11:34:25.714Z,7.8
2024-03-21T11:39:26.443Z,9.1
2024-03-21T11:44:27.090Z,12.5
2024-03-21T11:49:27.672Z,9.7
2024-03-21T11:54:28.391Z,9.6
2024-03-21T11:59:28.998Z,18.1
2024-03-21T12:04:29.669Z,26.2
2024-03-21T12:09:30.353Z,24.8
2024-03-21T12:14:31.068Z,26.1
2024-03-21T12:19:31.662Z,39.0
2024-03-21T12:24:32.728Z,52.4
2024-03-21T12:29:33.120Z,53.1
2024-03-21T12:34:33.830Z,56.1
2024-03-21T12:39:34.669Z,61.8
2024-03-21T12:44:35.191Z,69.5
2024-03-21T12:49:36.093Z,51.8
2024-03-21T12:54:36.786Z,57.8
2024-03-21T12:59:37.475Z,54.2
2024-03-21T13:04:38.131Z,39.9
2024-03-21T13:09:38.833Z,54.3
2024-03-21T13:14:39.440Z,45.0
2024-03-21T13:19:40.211Z,43.3
2024-03-21T13:24:40.948Z,49.1
2024-03-21T13:29:41.528Z,38.3
2024-03-21T13:34:42.091Z,45.2
2024-03-21T13:39:42.892Z,39.0
2024-03-21T13:44:43.526Z,46.1
2024-03-21T13:49:44.220Z,44.6
2024-03-21T13:54:44.870Z,41.0
2024-03-21T13:59:45.521Z,48.2
2024-03-21T14:04:46.122Z,46.5
2024-03-21T14:09:46.853Z,43.0
2024-03-21T14:14:47.522Z,44.6
2024-03-21T14:19:48.143Z,39.7
2024-03-21T14:24:48.970Z,36.1
2024-03-21T14:29:49.502Z,30.8
2024-03-21T14:34:50.140Z,30.2
2024-03-21T14:39:52.132Z,30.8
2024-03-21T14:44:57.503Z,34.7
2024-03-21T14:49:52.262Z,38.1
2024-03-21T14:54:52.962Z,38.8
2024-03-21T14:59:53.630Z,45.6
2024-03-21T15:04:54.323Z,36.8
2024-03-21T15:09:55.004Z,40.4
2024-03-21T15:14:55.634Z,44.1
2024-03-21T15:19:56.313Z,38.5
2024-03-21T15:24:57.252Z,37.0
2024-03-21T15:29:58.143Z,38.4
2024-03-21T15:35:05.787Z,41.9
2024-03-21T15:39:58.939Z,35.3
2024-03-21T15:44:59.603Z,38.3
2024-03-21T15:50:00.222Z,31.6
2024-03-21T15:55:00.907Z,38.5
2024-03-21T16:00:01.590Z,34.4
2024-03-21T16:05:02.163Z,34.2
2024-03-21T16:10:02.907Z,31.6
2024-03-21T16:15:03.525Z,23.9
2024-03-21T16:20:04.034Z,24.1
2024-03-21T16:25:04.915Z,31.1
2024-03-21T16:30:05.390Z,26.3
2024-03-21T16:35:06.002Z,38.5
2024-03-21T16:40:06.746Z,28.2
2024-03-21T16:45:07.335Z,36.1
2024-03-21T16:50:08.000Z,40.3
2024-03-21T16:55:08.753Z,41.2
2024-03-21T17:00:09.497Z,34.4
2024-03-21T17:05:09.978Z,35.8
2024-03-21T17:10:10.667Z,40.4
2024-03-21T17:15:11.719Z,36.0
2024-03-21T17:20:11.789Z,35.3
2024-03-21T17:25:12.704Z,34.1
2024-03-21T17:30:13.088Z,33.6
2024-03-21T17:35:13.714Z,38.7
2024-03-21T17:40:14.381Z,31.5
2024-03-21T17:45:14.952Z,29.8
2024-03-21T17:50:15.618Z,36.2
2024-03-21T17:55:16.472Z,34.8
2024-03-21T18:00:16.944Z,36.3
2024-03-21T18:05:17.633Z,43.9
2024-03-21T18:10:18.329Z,34.6
2024-03-21T18:15:18.956Z,38.9
2024-03-21T18:20:19.592Z,45.2
2024-03-21T18:25:20.359Z,44.2
2024-03-21T18:30:20.841Z,35.4
2024-03-21T18:35:21.532Z,35.0
2024-03-21T18:40:22.278Z,29.2
2024-03-21T18:45:22.806Z,39.0
2024-03-21T18:50:23.420Z,44.5
2024-03-21T18:55:23.979Z,30.5
2024-03-21T19:00:24.551Z,36.6
2024-03-21T19:05:25.145Z,38.3
2024-03-21T19:10:25.810Z,41.6
2024-03-21T19:15:26.433Z,40.9
2024-03-21T19:20:27.031Z,30.7
2024-03-21T19:25:28.004Z,33.6
2024-03-21T19:30:28.310Z,25.1
2024-03-21T19:35:28.831Z,34.5
2024-03-21T19:40:29.586Z,26.9
2024-03-21T19:45:30.171Z,26.1
2024-03-21T19:50:30.659Z,24.0
2024-03-21T19:55:31.737Z,24.1
2024-03-21T20:00:31.845Z,29.1
2024-03-21T20:05:32.401Z,29.8
2024-03-21T20:10:33.100Z,33.7
2024-03-21T20:15:33.617Z,33.0
2024-03-21T20:20:34.311Z,30.6
2024-03-21T20:25:35.042Z,32.7
2024-03-21T20:30:35.482Z,39.3
2024-03-21T20:35:36.096Z,29.9
2024-03-21T20:40:36.743Z,24.3
2024-03-21T20:45:37.338Z,34.6
2024-03-21T20:50:37.871Z,29.6
2024-03-21T20:55:38.628Z,23.3
2024-03-21T21:00:39.132Z,30.6
2024-03-21T21:05:39.715Z,25.9
2024-03-21T21:10:40.402Z,21.5
2024-03-21T21:15:40.877Z,22.3
2024-03-21T21:20:41.514Z,21.6
2024-03-21T21:25:42.282Z,25.7
2024-03-21T21:30:42.668Z,27.1
2024-03-21T21:35:43.351Z,23.2
2024-03-21T21:40:43.980Z,23.1
2024-03-21T21:45:44.558Z,21.2
2024-03-21T21:50:45.169Z,20.2
2024-03-21T21:55:45.811Z,16.9
2024-03-21T22:00:46.445Z,25.6
2024-03-21T22:05:46.917Z,23.5
2024-03-21T22:10:47.689Z,20.9
2024-03-21T22:15:48.150Z,16.1
2024-03-21T22:20:48.739Z,20.4
2024-03-21T22:25:49.578Z,14.1
2024-03-21T22:30:49.846Z,16.9
2024-03-21T22:35:50.412Z,12.5
2024-03-21T22:40:51.107Z,17.3
2024-03-21T22:45:51.619Z,23.1
2024-03-21T22:50:52.232Z,15.3
2024-03-21T22:55:52.829Z,14.4
2024-03-21T23:00:53.384Z,13.7
2024-03-21T23:05:54.074Z,15.7
2024-03-21T23:10:54.742Z,9.7
2024-03-21T23:15:55.063Z,8.7
2024-03-21T23:20:55.710Z,10.0
2024-03-21T23:25:56.490Z,9.9
2024-03-21T23:30:56.879Z,7.1
2024-03-21T23:35:57.372Z,15.2
2024-03-21T23:40:58.073Z,8.9
2024-03-21T23:45:58.532Z,14.8
2024-03-21T23:50:59.186Z,17.3
2024-03-21T23:55:59.659Z,16.8
